Terminal Aerodrome Forecast
Issued by NWS Billings, MT

Home | Current Version | Previous Version | Text Only | Print | Product List | Glossary On
Versions: 1 2 3 4 5 6 7 8 9 10 11 12 13 14 15 16 17 18 19 20 21 22 23 24 25 26 27 28 29 30 31 32 33 34 35 36 37 38 39 40 41 42 43
000
FTUS45 KBYZ 271140
TAFMLS
TAF
KMLS 271140Z 2712/2812 14010KT P6SM VCSH SCT020 BKN060
      TEMPO 2712/2715 4SM -SHSN BR BKN020
     FM272000 24007KT P6SM BKN100=

USA.gov is the U.S. government's official web portal to all federal, state and local government web resources and services.